Time;durP1;ratioP1;P1;durP2;ratioP2;P2;SDS_P1;SDS_P2;PMS_P1;PMS_P2;Temp;Humidity;BMP_temperature;BMP_pressure;BME280_temperature;BME280_humidity;BME280_pressure;Samples;Min_cycle;Max_cycle;Signal;HPM_P1;HPM_P2
2023/06/12 00:01:09;;;;;;;19.40;18.30;;;18.60;99.90;;;;;;4934151;29;20485;-74
2023/06/12 00:03:37;;;;;;;19.30;17.90;;;18.50;99.90;;;;;;4934039;29;20457;-74
2023/06/12 00:06:05;;;;;;;21.07;19.43;;;18.60;99.90;;;;;;4934249;29;20461;-73
2023/06/12 00:08:33;;;;;;;20.97;19.37;;;18.50;99.90;;;;;;4934005;29;20548;-72
2023/06/12 00:11:00;;;;;;;20.50;19.20;;;18.50;99.90;;;;;;4933962;29;20464;-72
2023/06/12 00:13:27;;;;;;;20.77;19.50;;;18.40;99.90;;;;;;4933890;29;20465;-73
2023/06/12 00:15:54;;;;;;;18.70;17.60;;;18.40;99.90;;;;;;4933763;29;20460;-73
2023/06/12 00:18:20;;;;;;;20.17;18.53;;;18.40;99.90;;;;;;4933605;29;20608;-74
2023/06/12 00:20:48;;;;;;;20.30;19.00;;;18.30;99.90;;;;;;4933711;29;20825;-73
2023/06/12 00:23:15;;;;;;;19.67;18.17;;;18.20;99.90;;;;;;4933392;29;21011;-73
2023/06/12 00:25:42;;;;;;;20.67;19.30;;;18.20;99.90;;;;;;4933098;29;20457;-73
2023/06/12 00:28:08;;;;;;;18.60;17.40;;;18.20;99.90;;;;;;4933493;29;20457;-73
2023/06/12 00:30:35;;;;;;;19.87;18.47;;;18.10;99.90;;;;;;4933543;29;20461;-72
2023/06/12 00:33:02;;;;;;;18.83;17.63;;;18.20;99.90;;;;;;4933768;29;20469;-73
2023/06/12 00:35:28;;;;;;;18.37;17.20;;;18.00;99.90;;;;;;4933575;29;20450;-72
2023/06/12 00:37:58;;;;;;;20.10;18.20;;;18.00;99.90;;;;;;4933649;29;20489;-73
2023/06/12 00:40:24;;;;;;;18.67;17.37;;;18.00;99.90;;;;;;4933465;29;20458;-72
2023/06/12 00:42:52;;;;;;;19.10;17.80;;;18.00;99.90;;;;;;4933254;29;20461;-72
2023/06/12 00:45:21;;;;;;;20.50;18.60;;;17.90;99.90;;;;;;4933482;29;20527;-71
2023/06/12 00:47:50;;;;;;;21.10;19.20;;;17.90;99.90;;;;;;4933270;29;20445;-72
2023/06/12 00:50:18;;;;;;;20.30;18.90;;;17.80;99.90;;;;;;4933073;29;20528;-73
2023/06/12 00:52:48;;;;;;;20.60;18.90;;;17.80;99.90;;;;;;4933326;29;20464;-73
2023/06/12 00:55:16;;;;;;;20.20;18.80;;;17.70;99.90;;;;;;4933266;29;20461;-72
2023/06/12 00:57:44;;;;;;;21.27;19.77;;;17.60;99.90;;;;;;4933401;29;20493;-72
2023/06/12 01:00:12;;;;;;;19.87;18.53;;;17.60;99.90;;;;;;4933405;29;20457;-72
2023/06/12 01:02:44;;;;;;;18.23;16.83;;;17.60;99.90;;;;;;4933302;29;20508;-73
2023/06/12 01:05:13;;;;;;;19.23;17.93;;;17.50;99.90;;;;;;4933258;29;20457;-73
2023/06/12 01:07:47;;;;;;;18.70;17.50;;;17.40;99.90;;;;;;4933038;29;20461;-73
2023/06/12 01:10:19;;;;;;;17.77;16.77;;;17.40;99.90;;;;;;4932972;29;20465;-73
2023/06/12 01:12:46;;;;;;;19.07;17.97;;;17.30;99.90;;;;;;4932905;29;20540;-73
2023/06/12 01:15:14;;;;;;;18.03;16.93;;;17.20;99.90;;;;;;4932927;29;20461;-73
2023/06/12 01:17:41;;;;;;;17.73;16.63;;;17.20;99.90;;;;;;4932843;29;20489;-73
2023/06/12 01:20:11;;;;;;;18.60;17.20;;;17.20;99.90;;;;;;4932656;29;20533;-73
2023/06/12 01:22:41;;;;;;;19.00;17.77;;;17.10;99.90;;;;;;4932573;29;20478;-73
2023/06/12 01:25:35;;;;;;;18.27;17.07;;;17.10;99.90;;;;;;4932512;29;21075;-73
2023/06/12 01:28:23;;;;;;;17.50;16.33;;;17.10;99.90;;;;;;4932621;29;20457;-73
2023/06/12 01:31:06;;;;;;;18.20;17.10;;;17.00;99.90;;;;;;4932655;29;20806;-73
2023/06/12 01:33:40;;;;;;;18.77;17.20;;;17.00;99.90;;;;;;4932521;29;20821;-73
2023/06/12 01:36:10;;;;;;;17.67;16.50;;;17.00;99.90;;;;;;4932532;29;20460;-73
2023/06/12 01:38:40;;;;;;;17.50;16.50;;;17.00;99.90;;;;;;4932164;29;20493;-73
2023/06/12 01:41:09;;;;;;;18.37;17.17;;;16.90;99.90;;;;;;4932365;29;20460;-74
2023/06/12 01:43:36;;;;;;;18.43;17.20;;;16.80;99.90;;;;;;4932367;29;20449;-74
2023/06/12 01:46:04;;;;;;;18.63;17.40;;;16.70;99.90;;;;;;4932444;29;21035;-74
2023/06/12 01:48:31;;;;;;;18.10;17.00;;;16.70;99.90;;;;;;4932383;29;20510;-73
2023/06/12 01:50:59;;;;;;;18.47;17.27;;;16.80;99.90;;;;;;4932295;29;20469;-74
2023/06/12 01:53:26;;;;;;;19.30;17.70;;;16.70;99.90;;;;;;4932273;29;20461;-74
2023/06/12 01:55:53;;;;;;;19.63;18.33;;;16.70;99.90;;;;;;4932104;29;20558;-74
2023/06/12 01:58:19;;;;;;;20.63;19.00;;;16.70;99.90;;;;;;4931979;29;20881;-74
2023/06/12 02:00:46;;;;;;;18.07;16.77;;;16.70;99.90;;;;;;4931952;29;20908;-73
2023/06/12 02:03:13;;;;;;;19.70;18.40;;;16.70;99.90;;;;;;4932036;29;20461;-76
2023/06/12 02:05:39;;;;;;;20.77;19.17;;;16.60;99.90;;;;;;4932421;29;20477;-75
2023/06/12 02:08:07;;;;;;;21.03;19.40;;;16.60;99.90;;;;;;4930864;29;20457;-74
2023/06/12 02:10:34;;;;;;;19.10;17.87;;;16.60;99.90;;;;;;4931645;29;20461;-73
2023/06/12 02:13:00;;;;;;;20.70;19.10;;;16.60;99.90;;;;;;4937262;29;20452;-73
2023/06/12 02:15:28;;;;;;;20.43;18.80;;;16.60;99.90;;;;;;4941576;29;20445;-73
2023/06/12 02:17:55;;;;;;;19.57;18.40;;;17.10;99.90;;;;;;4939965;29;20453;-72
2023/06/12 02:20:21;;;;;;;20.50;18.33;;;16.60;99.90;;;;;;4940505;29;20884;-73
2023/06/12 02:22:48;;;;;;;17.70;16.40;;;16.60;99.90;;;;;;4941200;29;20963;-74
2023/06/12 02:25:16;;;;;;;18.57;17.47;;;16.50;99.90;;;;;;4939462;29;20472;-74
2023/06/12 02:27:43;;;;;;;18.27;16.97;;;16.50;99.90;;;;;;4940370;29;20471;-75
2023/06/12 02:30:11;;;;;;;20.17;18.97;;;16.40;99.90;;;;;;4941721;29;20452;-74
2023/06/12 02:32:39;;;;;;;18.50;17.40;;;16.40;99.90;;;;;;4939734;29;20445;-75
2023/06/12 02:35:08;;;;;;;19.37;18.27;;;16.40;99.90;;;;;;4939856;29;20543;-75
2023/06/12 02:37:35;;;;;;;20.03;18.73;;;16.30;99.90;;;;;;4939403;29;20553;-73
2023/06/12 02:40:02;;;;;;;19.17;17.97;;;16.40;99.90;;;;;;4940213;29;20495;-75
2023/06/12 02:42:30;;;;;;;19.50;18.30;;;16.40;99.90;;;;;;4941449;29;20454;-75
2023/06/12 02:44:56;;;;;;;19.07;17.60;;;16.30;99.90;;;;;;4939933;29;20464;-75
2023/06/12 02:47:23;;;;;;;19.50;18.30;;;16.30;99.90;;;;;;4940395;29;20517;-75
2023/06/12 02:49:50;;;;;;;20.33;19.10;;;16.10;99.90;;;;;;4943517;29;20672;-75
2023/06/12 02:52:16;;;;;;;19.20;18.10;;;16.00;99.90;;;;;;4943209;29;20457;-75
2023/06/12 02:54:43;;;;;;;19.53;18.43;;;16.00;99.90;;;;;;4944191;29;20452;-75
2023/06/12 02:57:10;;;;;;;22.03;20.73;;;16.00;99.90;;;;;;4945235;29;20448;-76
2023/06/12 02:59:38;;;;;;;20.10;18.80;;;15.90;99.90;;;;;;4943393;29;20544;-76
2023/06/12 03:02:05;;;;;;;20.20;19.00;;;15.80;99.90;;;;;;4943512;29;20452;-76
2023/06/12 03:04:33;;;;;;;19.97;18.67;;;15.80;99.90;;;;;;4945278;29;20441;-75
2023/06/12 03:07:06;;;;;;;20.53;19.17;;;15.70;99.90;;;;;;4943845;29;20484;-75
2023/06/12 03:09:34;;;;;;;20.10;19.00;;;15.70;99.90;;;;;;4943068;29;20450;-75
2023/06/12 03:12:02;;;;;;;21.40;20.00;;;15.70;99.90;;;;;;4943958;28;20862;-75
2023/06/12 03:14:28;;;;;;;20.57;19.17;;;15.70;99.90;;;;;;4944694;29;20457;-74
2023/06/12 03:16:57;;;;;;;20.73;19.53;;;15.70;99.90;;;;;;4944989;29;20457;-75
2023/06/12 03:19:24;;;;;;;18.97;17.90;;;15.70;99.90;;;;;;4943961;29;20998;-75
2023/06/12 03:21:50;;;;;;;19.87;18.63;;;15.80;99.90;;;;;;4942519;29;20528;-75
2023/06/12 03:24:17;;;;;;;21.60;19.83;;;15.90;99.90;;;;;;4944251;29;20483;-75
2023/06/12 03:26:44;;;;;;;19.87;18.53;;;15.90;99.90;;;;;;4943824;29;20456;-75
2023/06/12 03:29:11;;;;;;;19.73;18.07;;;15.90;99.90;;;;;;4942730;29;20454;-75
2023/06/12 03:31:37;;;;;;;20.27;19.07;;;15.90;99.90;;;;;;4944154;29;20456;-75
2023/06/12 03:34:07;;;;;;;19.93;18.63;;;15.90;99.90;;;;;;4943853;29;20550;-75
2023/06/12 03:36:33;;;;;;;20.07;18.57;;;15.90;99.90;;;;;;4942459;29;20806;-75
2023/06/12 03:39:00;;;;;;;19.90;18.80;;;15.80;99.90;;;;;;4943595;29;20579;-77
2023/06/12 03:41:31;;;;;;;22.10;20.37;;;15.80;99.90;;;;;;4944414;29;20504;-75
2023/06/12 03:43:58;;;;;;;19.90;18.50;;;15.80;99.90;;;;;;4943222;29;20461;-73
2023/06/12 03:46:25;;;;;;;20.70;19.40;;;15.70;99.90;;;;;;4943075;29;20449;-73
2023/06/12 03:48:51;;;;;;;20.27;19.07;;;15.80;99.90;;;;;;4944065;29;20853;-72
2023/06/12 03:51:19;;;;;;;19.07;17.77;;;15.90;99.90;;;;;;4942705;29;20449;-73
2023/06/12 03:53:47;;;;;;;20.13;18.83;;;15.90;99.90;;;;;;4942941;29;20445;-76
2023/06/12 03:56:13;;;;;;;20.40;19.20;;;16.00;99.90;;;;;;4944729;29;20444;-73
2023/06/12 03:58:40;;;;;;;19.50;18.30;;;16.10;99.90;;;;;;4943337;29;20493;-74
2023/06/12 04:01:06;;;;;;;21.30;19.60;;;16.20;99.90;;;;;;4942678;28;20453;-74
2023/06/12 04:03:34;;;;;;;21.10;19.50;;;16.20;99.90;;;;;;4944430;29;20449;-76
2023/06/12 04:06:01;;;;;;;24.70;21.50;;;16.20;99.90;;;;;;4942866;29;20459;-74
2023/06/12 04:08:29;;;;;;;21.23;19.67;;;16.30;99.90;;;;;;4942784;29;20452;-72
2023/06/12 04:10:55;;;;;;;20.20;19.00;;;16.30;99.90;;;;;;4942596;29;20469;-74
2023/06/12 04:13:22;;;;;;;21.00;19.80;;;16.40;99.90;;;;;;4942626;29;20468;-72
2023/06/12 04:15:49;;;;;;;21.63;20.10;;;16.40;99.90;;;;;;4942388;28;20955;-74
2023/06/12 04:18:15;;;;;;;21.67;20.40;;;16.40;99.90;;;;;;4941835;29;20450;-73
2023/06/12 04:20:42;;;;;;;19.93;18.73;;;16.50;99.90;;;;;;4943491;29;20866;-74
2023/06/12 04:23:11;;;;;;;19.57;18.10;;;16.70;99.90;;;;;;4943439;29;20477;-73
2023/06/12 04:25:43;;;;;;;21.43;19.93;;;17.20;99.90;;;;;;4942370;29;20857;-75
2023/06/12 04:28:13;;;;;;;21.87;19.97;;;18.00;99.90;;;;;;4942286;29;20453;-75
2023/06/12 04:30:41;;;;;;;20.63;19.00;;;18.60;99.90;;;;;;4942989;29;20799;-75
2023/06/12 04:33:09;;;;;;;19.47;18.33;;;19.10;99.90;;;;;;4942065;29;20449;-74
2023/06/12 04:35:36;;;;;;;20.60;18.90;;;19.70;99.90;;;;;;4941891;29;20477;-72
2023/06/12 04:38:05;;;;;;;19.70;18.60;;;20.40;99.90;;;;;;4942775;28;20508;-72
2023/06/12 04:40:32;;;;;;;21.93;20.20;;;21.00;99.90;;;;;;4943564;29;20484;-72
2023/06/12 04:43:00;;;;;;;21.70;19.60;;;21.50;99.90;;;;;;4942312;29;20465;-72
2023/06/12 04:45:32;;;;;;;21.00;19.70;;;21.80;99.90;;;;;;4942403;29;20448;-74
2023/06/12 04:47:58;;;;;;;21.87;20.40;;;22.40;99.60;;;;;;4941999;29;20461;-72
2023/06/12 04:50:25;;;;;;;21.33;19.90;;;22.80;98.10;;;;;;4942422;29;20512;-72
2023/06/12 04:52:52;;;;;;;21.30;19.87;;;23.00;97.60;;;;;;4943473;29;20491;-72
2023/06/12 04:55:22;;;;;;;21.43;20.00;;;23.40;97.40;;;;;;4941823;29;20449;-72
2023/06/12 04:57:52;;;;;;;19.07;18.07;;;23.40;96.10;;;;;;4946818;29;20856;-72
2023/06/12 05:00:21;;;;;;;18.47;17.17;;;23.40;94.80;;;;;;4952468;29;20824;-74
2023/06/12 05:02:49;;;;;;;18.00;16.90;;;23.60;94.50;;;;;;4952250;29;20568;-73
2023/06/12 05:05:16;;;;;;;19.53;18.23;;;23.30;94.00;;;;;;4952251;29;20537;-74
2023/06/12 05:07:45;;;;;;;19.63;18.50;;;23.20;94.40;;;;;;4952502;29;20507;-74
2023/06/12 05:10:13;;;;;;;19.87;18.77;;;23.40;94.20;;;;;;4952748;29;20815;-75
2023/06/12 05:12:40;;;;;;;18.07;17.07;;;23.70;93.50;;;;;;4952029;28;20480;-75
2023/06/12 05:15:08;;;;;;;19.33;17.97;;;23.90;93.40;;;;;;4952189;29;20468;-75
2023/06/12 05:17:36;;;;;;;19.53;18.43;;;24.10;93.10;;;;;;4952109;29;20456;-75
2023/06/12 05:20:05;;;;;;;19.10;18.10;;;24.20;92.50;;;;;;4952103;29;20510;-74
2023/06/12 05:22:32;;;;;;;18.23;17.03;;;24.40;92.30;;;;;;4952165;29;20472;-75
2023/06/12 05:24:58;;;;;;;18.83;17.80;;;24.80;91.70;;;;;;4952141;29;20846;-75
2023/06/12 05:27:25;;;;;;;18.13;16.93;;;25.20;90.90;;;;;;4952511;29;20955;-75
2023/06/12 05:29:52;;;;;;;18.40;17.30;;;25.30;90.70;;;;;;4952416;29;20465;-75
2023/06/12 05:32:18;;;;;;;18.40;17.40;;;25.40;90.30;;;;;;4952545;29;20457;-74
2023/06/12 05:34:46;;;;;;;19.43;18.53;;;25.40;89.30;;;;;;4952008;29;20619;-75
2023/06/12 05:37:13;;;;;;;17.80;16.80;;;25.30;89.60;;;;;;4952397;29;20460;-74
2023/06/12 05:39:40;;;;;;;18.83;17.60;;;25.20;90.20;;;;;;4952224;29;21073;-75
2023/06/12 05:42:07;;;;;;;18.13;17.17;;;25.30;90.20;;;;;;4951963;29;20460;-75
2023/06/12 05:44:33;;;;;;;18.47;17.57;;;25.70;88.70;;;;;;4945251;29;20453;-73
2023/06/12 05:47:00;;;;;;;21.67;20.47;;;25.80;89.40;;;;;;4941398;28;20523;-75
2023/06/12 05:49:27;;;;;;;18.50;17.33;;;26.10;87.40;;;;;;4942682;29;20441;-82
2023/06/12 05:51:55;;;;;;;19.63;18.30;;;26.10;87.10;;;;;;4943775;29;20489;-74
2023/06/12 05:54:21;;;;;;;17.50;16.60;;;26.00;87.00;;;;;;4942591;28;20819;-73
2023/06/12 05:56:48;;;;;;;18.63;17.53;;;26.10;87.30;;;;;;4941357;29;20908;-74
2023/06/12 05:59:15;;;;;;;18.30;17.40;;;26.60;85.90;;;;;;4940601;28;20990;-75
2023/06/12 06:01:41;;;;;;;18.07;17.17;;;27.10;84.30;;;;;;4940680;29;20949;-74
2023/06/12 06:04:11;;;;;;;17.67;16.87;;;27.40;82.20;;;;;;4941602;29;20440;-75
2023/06/12 06:06:38;;;;;;;18.87;17.87;;;27.80;80.60;;;;;;4942295;29;20448;-73
2023/06/12 06:09:06;;;;;;;17.83;17.03;;;28.10;79.70;;;;;;4940846;29;20541;-73
2023/06/12 06:11:32;;;;;;;19.77;18.77;;;28.30;78.70;;;;;;4940966;29;20452;-74
2023/06/12 06:13:59;;;;;;;18.47;17.47;;;28.60;77.80;;;;;;4942165;29;20453;-73
2023/06/12 06:16:26;;;;;;;20.00;18.87;;;29.10;75.00;;;;;;4941238;29;20449;-74
2023/06/12 06:18:53;;;;;;;19.70;18.40;;;29.50;73.30;;;;;;4948396;29;20858;-75
2023/06/12 06:21:20;;;;;;;18.83;17.80;;;29.50;73.00;;;;;;4951187;28;20452;-75
2023/06/12 06:23:46;;;;;;;19.10;18.20;;;29.70;71.70;;;;;;4950588;28;20515;-75
2023/06/12 06:26:15;;;;;;;18.70;17.80;;;29.30;71.40;;;;;;4951602;29;20861;-74
2023/06/12 06:28:41;;;;;;;18.30;17.40;;;29.20;71.70;;;;;;4951369;29;20544;-74
2023/06/12 06:31:08;;;;;;;18.13;17.13;;;29.00;72.10;;;;;;4950993;29;20824;-74
2023/06/12 06:33:36;;;;;;;17.77;16.97;;;28.80;72.30;;;;;;4951124;29;20784;-74
2023/06/12 06:36:03;;;;;;;18.70;17.57;;;28.20;73.30;;;;;;4951126;29;20545;-74
2023/06/12 06:38:29;;;;;;;17.90;16.80;;;28.70;73.30;;;;;;4951032;29;20449;-73
2023/06/12 06:40:56;;;;;;;17.50;16.60;;;28.40;72.50;;;;;;4951114;29;20493;-75
2023/06/12 06:43:24;;;;;;;15.83;15.13;;;28.00;73.60;;;;;;4951143;29;20461;-76
2023/06/12 06:45:51;;;;;;;18.40;17.60;;;28.30;72.70;;;;;;4951019;29;21009;-75
2023/06/12 06:48:18;;;;;;;17.03;16.23;;;27.90;73.60;;;;;;4950892;29;20729;-76
2023/06/12 06:50:45;;;;;;;17.80;16.90;;;27.50;74.30;;;;;;4951082;29;20483;-76
2023/06/12 06:53:11;;;;;;;19.30;18.30;;;27.50;74.60;;;;;;4951468;29;20456;-75
2023/06/12 06:55:42;;;;;;;18.37;17.47;;;27.60;74.30;;;;;;4950927;29;20481;-76
2023/06/12 06:58:08;;;;;;;17.87;16.87;;;27.90;73.80;;;;;;4951357;29;20453;-76
2023/06/12 07:00:36;;;;;;;18.27;17.43;;;27.80;73.80;;;;;;4950993;29;20499;-76
2023/06/12 07:03:03;;;;;;;17.03;16.17;;;27.50;74.50;;;;;;4950835;29;20459;-76
2023/06/12 07:05:30;;;;;;;18.80;17.77;;;27.00;75.20;;;;;;4951048;29;20459;-76
2023/06/12 07:07:57;;;;;;;17.60;16.67;;;26.60;77.30;;;;;;4950809;29;20456;-76
2023/06/12 07:10:23;;;;;;;16.50;15.80;;;26.60;76.80;;;;;;4950877;29;20467;-75
2023/06/12 07:12:56;;;;;;;18.07;17.17;;;26.70;76.60;;;;;;4950828;29;20463;-75
2023/06/12 07:15:23;;;;;;;16.80;16.00;;;26.90;75.90;;;;;;4946613;29;20469;-76
2023/06/12 07:17:51;;;;;;;19.97;18.63;;;27.20;74.60;;;;;;4931637;29;20838;-76
2023/06/12 07:20:17;;;;;;;17.50;16.70;;;27.70;75.00;;;;;;4931430;29;20480;-75
2023/06/12 07:22:44;;;;;;;17.67;16.87;;;27.80;71.60;;;;;;4931558;29;20485;-76
2023/06/12 07:25:11;;;;;;;17.03;16.10;;;28.20;72.00;;;;;;4931646;29;20607;-76
2023/06/12 07:27:37;;;;;;;20.00;18.90;;;28.00;70.70;;;;;;4931689;29;20458;-74
2023/06/12 07:30:05;;;;;;;17.10;16.20;;;27.50;72.30;;;;;;4931446;29;20461;-75
2023/06/12 07:32:32;;;;;;;17.07;16.17;;;27.60;73.30;;;;;;4931182;29;20454;-76
2023/06/12 07:35:01;;;;;;;17.77;16.90;;;27.80;72.60;;;;;;4939431;29;20453;-75
2023/06/12 07:37:29;;;;;;;16.63;15.93;;;28.20;71.60;;;;;;4950778;29;20477;-75
2023/06/12 07:39:56;;;;;;;17.70;16.90;;;28.30;69.30;;;;;;4939264;29;20496;-76
2023/06/12 07:42:22;;;;;;;17.63;16.60;;;28.70;69.30;;;;;;4937723;29;20472;-76
2023/06/12 07:44:49;;;;;;;19.43;18.33;;;28.50;67.90;;;;;;4937880;29;20457;-76
2023/06/12 07:47:16;;;;;;;17.03;16.33;;;28.00;69.20;;;;;;4938374;29;20464;-75
2023/06/12 07:49:43;;;;;;;18.40;17.17;;;28.40;69.10;;;;;;4935863;29;20445;-76
2023/06/12 07:52:11;;;;;;;19.23;18.30;;;28.70;68.40;;;;;;4935063;29;20468;-75
2023/06/12 07:54:37;;;;;;;19.07;18.27;;;29.30;65.40;;;;;;4934670;29;20548;-75
2023/06/12 07:57:06;;;;;;;20.00;18.90;;;29.20;65.00;;;;;;4934609;29;20493;-75
2023/06/12 07:59:32;;;;;;;19.67;18.23;;;29.70;64.30;;;;;;4934329;29;20453;-75
2023/06/12 08:02:00;;;;;;;18.93;18.13;;;30.00;63.70;;;;;;4934749;29;20465;-76
2023/06/12 08:04:29;;;;;;;19.33;18.43;;;29.60;62.80;;;;;;4934733;29;20457;-75
2023/06/12 08:06:56;;;;;;;19.40;18.40;;;28.90;62.80;;;;;;4934708;29;20464;-75
2023/06/12 08:09:24;;;;;;;18.50;17.40;;;28.60;64.50;;;;;;4934477;29;20987;-76
2023/06/12 08:11:51;;;;;;;19.17;18.17;;;29.00;64.30;;;;;;4934953;29;20978;-75
2023/06/12 08:14:18;;;;;;;18.93;18.03;;;29.10;64.20;;;;;;4934528;29;21144;-75
2023/06/12 08:16:45;;;;;;;19.97;18.87;;;29.20;63.60;;;;;;4934506;29;20454;-75
2023/06/12 08:19:12;;;;;;;18.10;17.20;;;29.40;63.60;;;;;;4934244;29;20497;-75
2023/06/12 08:21:39;;;;;;;18.33;17.50;;;29.60;62.80;;;;;;4934071;29;20671;-75
2023/06/12 08:24:07;;;;;;;18.30;17.40;;;29.80;63.50;;;;;;4933819;29;20493;-75
2023/06/12 08:26:35;;;;;;;19.10;18.20;;;29.30;64.10;;;;;;4934169;29;20466;-74
2023/06/12 08:29:02;;;;;;;19.07;18.07;;;29.20;65.30;;;;;;4934098;29;20460;-74
2023/06/12 08:31:29;;;;;;;20.13;18.83;;;29.60;64.40;;;;;;4934147;29;20442;-73
2023/06/12 08:33:55;;;;;;;18.83;17.83;;;30.20;62.90;;;;;;4934132;29;20457;-73
2023/06/12 08:36:22;;;;;;;18.63;17.83;;;31.40;59.10;;;;;;4933958;29;20461;-73
2023/06/12 08:38:49;;;;;;;19.47;18.67;;;31.30;52.70;;;;;;4933999;29;20457;-73
2023/06/12 08:41:18;;;;;;;19.27;18.37;;;31.90;53.00;;;;;;4933783;29;20489;-75
2023/06/12 08:43:47;;;;;;;19.27;18.37;;;31.60;54.70;;;;;;4933918;29;20532;-75
2023/06/12 08:46:17;;;;;;;18.50;17.60;;;30.90;53.60;;;;;;4933411;29;20485;-74
2023/06/12 08:48:46;;;;;;;18.87;18.07;;;31.10;54.30;;;;;;4933571;29;20457;-74
2023/06/12 08:51:14;;;;;;;18.70;17.90;;;30.70;53.50;;;;;;4933781;29;20819;-75
2023/06/12 08:53:42;;;;;;;18.13;17.33;;;29.70;54.50;;;;;;4933777;29;20549;-74
2023/06/12 08:56:11;;;;;;;18.77;17.87;;;29.30;55.90;;;;;;4933742;29;20552;-75
2023/06/12 08:58:37;;;;;;;18.70;17.80;;;29.40;56.60;;;;;;4933747;29;20875;-75
2023/06/12 09:01:08;;;;;;;18.30;17.40;;;30.20;52.90;;;;;;4933779;29;20895;-75
2023/06/12 09:03:36;;;;;;;19.17;18.27;;;29.80;53.60;;;;;;4933596;29;20460;-75
2023/06/12 09:06:06;;;;;;;18.83;17.80;;;30.90;53.50;;;;;;4933677;29;20458;-75
2023/06/12 09:08:34;;;;;;;19.20;18.10;;;31.40;52.40;;;;;;4933665;29;20989;-76
2023/06/12 09:11:01;;;;;;;18.00;17.20;;;31.20;52.90;;;;;;4933314;29;20458;-75
2023/06/12 09:13:40;;;;;;;19.53;18.63;;;30.90;52.60;;;;;;4933615;29;20481;-75
2023/06/12 09:16:11;;;;;;;19.30;18.20;;;30.10;52.30;;;;;;4933568;29;20465;-75
2023/06/12 09:18:48;;;;;;;20.00;19.10;;;29.40;54.20;;;;;;4933532;29;20449;-75
2023/06/12 09:21:15;;;;;;;19.27;18.37;;;29.50;54.60;;;;;;4933401;29;20496;-75
2023/06/12 09:23:43;;;;;;;17.77;16.97;;;29.90;51.90;;;;;;4933398;29;20508;-75
2023/06/12 09:26:15;;;;;;;17.63;16.83;;;29.80;51.20;;;;;;4933435;29;20874;-75
2023/06/12 09:28:43;;;;;;;19.37;18.27;;;29.70;52.20;;;;;;4933568;29;20464;-75
2023/06/12 09:31:11;;;;;;;18.40;17.60;;;30.30;51.20;;;;;;4933401;29;20473;-75
2023/06/12 09:33:40;;;;;;;18.77;17.97;;;30.10;50.80;;;;;;4933141;29;20454;-75
2023/06/12 09:36:07;;;;;;;19.10;18.20;;;30.10;51.30;;;;;;4933021;29;20799;-75
2023/06/12 09:38:35;;;;;;;18.10;17.30;;;30.70;50.80;;;;;;4933097;29;20834;-75
2023/06/12 09:41:03;;;;;;;18.03;17.13;;;31.30;50.30;;;;;;4932925;29;20895;-75
2023/06/12 09:43:30;;;;;;;18.33;17.43;;;31.50;49.30;;;;;;4932974;29;20899;-75
2023/06/12 09:45:57;;;;;;;20.33;19.13;;;32.20;48.80;;;;;;4933159;29;20552;-75
2023/06/12 09:48:31;;;;;;;20.43;18.87;;;32.00;47.60;;;;;;4932119;28;20453;-75
2023/06/12 09:50:58;;;;;;;20.63;19.63;;;32.00;48.50;;;;;;4944984;28;20543;-75
2023/06/12 09:53:26;;;;;;;19.83;19.00;;;32.90;47.50;;;;;;4943582;29;20835;-75
2023/06/12 09:55:54;;;;;;;19.27;18.40;;;32.40;48.10;;;;;;4932908;29;20517;-75
2023/06/12 09:58:21;;;;;;;19.80;18.43;;;32.40;46.80;;;;;;4946088;28;20854;-75
2023/06/12 10:00:55;;;;;;;20.23;19.23;;;31.20;48.20;;;;;;4951961;28;20500;-75
2023/06/12 10:03:26;;;;;;;18.77;17.97;;;30.20;50.30;;;;;;4951803;28;20466;-75
2023/06/12 10:05:54;;;;;;;18.07;17.17;;;30.20;50.60;;;;;;4946204;28;20454;-75
2023/06/12 10:08:21;;;;;;;18.97;18.17;;;30.10;49.80;;;;;;4932645;29;20492;-75
2023/06/12 10:10:48;;;;;;;18.00;17.30;;;29.90;51.30;;;;;;4932612;29;20953;-75
2023/06/12 10:13:15;;;;;;;19.10;18.10;;;30.30;49.50;;;;;;4935517;29;20898;-75
2023/06/12 10:15:42;;;;;;;18.40;17.50;;;31.70;48.30;;;;;;4943260;29;20459;-75
2023/06/12 10:18:10;;;;;;;19.30;18.33;;;31.40;48.10;;;;;;4938493;29;21218;-75
2023/06/12 10:20:38;;;;;;;18.60;17.60;;;31.00;47.00;;;;;;4932460;29;20497;-75
2023/06/12 10:23:06;;;;;;;19.07;18.17;;;30.50;47.40;;;;;;4943394;29;20504;-75
2023/06/12 10:25:33;;;;;;;18.60;17.70;;;31.20;47.70;;;;;;4932491;29;20730;-75
2023/06/12 10:28:02;;;;;;;18.67;17.77;;;31.60;47.20;;;;;;4932504;29;20460;-76
2023/06/12 10:30:28;;;;;;;18.60;17.70;;;31.90;46.40;;;;;;4932383;29;20458;-76
2023/06/12 10:32:55;;;;;;;18.30;17.47;;;31.80;46.10;;;;;;4932509;29;20461;-76
2023/06/12 10:35:32;;;;;;;20.00;18.77;;;30.80;47.40;;;;;;4943022;29;20827;-75
2023/06/12 10:38:00;;;;;;;18.67;17.87;;;30.40;46.90;;;;;;4949585;29;20895;-73
2023/06/12 10:40:30;;;;;;;19.00;18.00;;;30.40;47.00;;;;;;4951546;29;20565;-75
2023/06/12 10:43:03;;;;;;;18.90;18.00;;;30.60;48.00;;;;;;4951830;29;20448;-76
2023/06/12 10:45:31;;;;;;;19.13;18.30;;;31.60;47.10;;;;;;4951667;29;20468;-76
2023/06/12 10:48:19;;;;;;;20.00;19.03;;;31.40;46.20;;;;;;4951419;29;20461;-75
2023/06/12 10:50:49;;;;;;;19.80;18.60;;;31.20;47.20;;;;;;4951448;28;20511;-75
2023/06/12 10:53:23;;;;;;;19.63;18.73;;;31.80;46.10;;;;;;4951339;29;20456;-76
2023/06/12 10:55:56;;;;;;;19.50;18.60;;;32.40;45.80;;;;;;4951537;28;20518;-75
2023/06/12 10:58:25;;;;;;;18.97;18.10;;;32.90;45.20;;;;;;4951210;29;20452;-75
2023/06/12 11:00:53;;;;;;;19.50;18.50;;;32.40;45.60;;;;;;4951220;29;20852;-76
2023/06/12 11:03:25;;;;;;;20.43;19.53;;;31.60;46.00;;;;;;4951059;29;20481;-76
2023/06/12 11:05:54;;;;;;;20.40;19.20;;;31.90;46.00;;;;;;4951144;28;20896;-76
2023/06/12 11:08:24;;;;;;;20.43;19.53;;;32.00;45.60;;;;;;4954494;29;20459;-85
2023/06/12 11:10:50;;;;;;;19.70;18.90;;;32.50;45.70;;;;;;4953191;28;20892;-75
2023/06/12 11:13:17;;;;;;;21.20;19.80;;;32.70;44.60;;;;;;4954873;29;20831;-75
2023/06/12 11:15:46;;;;;;;20.90;19.90;;;32.50;45.20;;;;;;4954928;29;20448;-74
2023/06/12 11:18:14;;;;;;;20.43;19.53;;;32.30;44.70;;;;;;4955147;28;20966;-75
2023/06/12 11:20:41;;;;;;;18.97;18.13;;;31.70;44.70;;;;;;4954874;29;20540;-76
2023/06/12 11:23:08;;;;;;;20.00;18.90;;;31.80;44.10;;;;;;4954754;29;20476;-75
2023/06/12 11:25:43;;;;;;;18.93;18.13;;;32.40;43.20;;;;;;4954831;29;20538;-74
2023/06/12 11:28:11;;;;;;;21.93;20.50;;;33.00;42.70;;;;;;4954932;28;20451;-76
2023/06/12 11:30:38;;;;;;;19.67;18.67;;;33.10;42.00;;;;;;4955045;28;20459;-75
2023/06/12 11:33:10;;;;;;;17.83;17.13;;;32.70;40.80;;;;;;4954516;29;20463;-76
2023/06/12 11:35:41;;;;;;;19.20;18.40;;;32.40;41.40;;;;;;4954916;29;20515;-74
2023/06/12 11:38:09;;;;;;;18.63;17.90;;;33.20;40.60;;;;;;4958672;29;20464;-74
2023/06/12 11:40:37;;;;;;;18.00;17.30;;;33.50;40.50;;;;;;4968030;29;20491;-75
2023/06/12 11:43:03;;;;;;;20.27;19.27;;;32.90;41.20;;;;;;4956137;29;20511;-75
2023/06/12 11:45:31;;;;;;;18.70;17.90;;;32.00;42.70;;;;;;4955487;29;20456;-75
2023/06/12 11:47:59;;;;;;;19.40;18.50;;;31.30;43.60;;;;;;4956009;29;20452;-76
2023/06/12 11:50:26;;;;;;;18.47;17.67;;;30.80;44.60;;;;;;4956413;28;20489;-76
2023/06/12 11:52:54;;;;;;;19.47;18.57;;;31.20;44.50;;;;;;4955838;29;20455;-77
2023/06/12 11:55:23;;;;;;;18.83;17.63;;;32.30;42.60;;;;;;4955057;28;20959;-76
2023/06/12 11:57:52;;;;;;;18.03;17.33;;;32.80;41.40;;;;;;4954411;29;20482;-76
2023/06/12 12:00:20;;;;;;;18.97;17.97;;;32.70;41.40;;;;;;4954498;29;20681;-76
2023/06/12 12:02:51;;;;;;;18.13;17.23;;;32.30;41.10;;;;;;4954405;29;20488;-75
2023/06/12 12:05:20;;;;;;;18.53;17.73;;;31.90;42.00;;;;;;4954361;29;20453;-76
2023/06/12 12:07:52;;;;;;;18.90;18.10;;;32.00;42.10;;;;;;4954511;29;20551;-77
2023/06/12 12:10:19;;;;;;;19.20;18.30;;;32.10;42.40;;;;;;4954156;29;20713;-77
2023/06/12 12:12:49;;;;;;;19.10;18.20;;;32.40;42.50;;;;;;4954368;29;20539;-77
2023/06/12 12:15:18;;;;;;;20.40;19.30;;;32.90;41.50;;;;;;4953932;29;20519;-77
2023/06/12 12:17:45;;;;;;;19.20;18.40;;;33.50;41.00;;;;;;4953860;29;20452;-76
2023/06/12 12:20:18;;;;;;;20.13;19.13;;;34.30;40.00;;;;;;4953801;29;20453;-75
2023/06/12 12:22:48;;;;;;;18.70;17.70;;;34.60;38.80;;;;;;4952700;28;20880;-76
2023/06/12 12:25:16;;;;;;;19.50;18.57;;;34.60;38.50;;;;;;4953632;29;20504;-76
2023/06/12 12:27:45;;;;;;;20.50;19.30;;;33.70;39.70;;;;;;4953853;29;20457;-76
2023/06/12 12:30:14;;;;;;;20.00;19.00;;;33.70;39.50;;;;;;4953784;29;20457;-75
2023/06/12 12:32:44;;;;;;;19.77;18.90;;;33.80;39.40;;;;;;4954223;29;20491;-76